sensor_id;sensor_type;location;lat;lon;timestamp;P1;durP1;ratioP1;P2;durP2;ratioP2
45842;SDS011;31563;51.744;8.252;2024-03-08T00:00:30;3.92;;;3.55;;
45842;SDS011;31563;51.744;8.252;2024-03-08T00:03:00;3.92;;;3.63;;
45842;SDS011;31563;51.744;8.252;2024-03-08T00:05:29;3.60;;;3.30;;
45842;SDS011;31563;51.744;8.252;2024-03-08T00:07:57;3.50;;;3.20;;
45842;SDS011;31563;51.744;8.252;2024-03-08T00:10:26;3.65;;;3.35;;
45842;SDS011;31563;51.744;8.252;2024-03-08T00:12:55;3.72;;;3.42;;
45842;SDS011;31563;51.744;8.252;2024-03-08T00:15:23;3.50;;;3.20;;
45842;SDS011;31563;51.744;8.252;2024-03-08T00:17:52;4.20;;;3.80;;
45842;SDS011;31563;51.744;8.252;2024-03-08T00:20:22;3.70;;;3.40;;
45842;SDS011;31563;51.744;8.252;2024-03-08T00:22:50;4.38;;;3.97;;
45842;SDS011;31563;51.744;8.252;2024-03-08T00:25:18;4.00;;;3.60;;
45842;SDS011;31563;51.744;8.252;2024-03-08T00:27:46;4.20;;;3.80;;
45842;SDS011;31563;51.744;8.252;2024-03-08T00:30:15;3.55;;;3.25;;
45842;SDS011;31563;51.744;8.252;2024-03-08T00:32:44;4.15;;;3.75;;
45842;SDS011;31563;51.744;8.252;2024-03-08T00:35:12;4.22;;;3.83;;
45842;SDS011;31563;51.744;8.252;2024-03-08T00:37:41;4.22;;;3.83;;
45842;SDS011;31563;51.744;8.252;2024-03-08T00:40:13;4.47;;;4.07;;
45842;SDS011;31563;51.744;8.252;2024-03-08T00:42:42;4.18;;;3.78;;
45842;SDS011;31563;51.744;8.252;2024-03-08T00:45:10;3.97;;;3.67;;
45842;SDS011;31563;51.744;8.252;2024-03-08T00:47:40;4.40;;;4.00;;
45842;SDS011;31563;51.744;8.252;2024-03-08T00:50:11;3.50;;;3.20;;
45842;SDS011;31563;51.744;8.252;2024-03-08T00:52:39;3.72;;;3.42;;
45842;SDS011;31563;51.744;8.252;2024-03-08T00:55:08;3.90;;;3.60;;
45842;SDS011;31563;51.744;8.252;2024-03-08T00:57:37;3.88;;;3.47;;
45842;SDS011;31563;51.744;8.252;2024-03-08T01:00:06;4.47;;;3.55;;
45842;SDS011;31563;51.744;8.252;2024-03-08T01:02:38;4.07;;;3.67;;
45842;SDS011;31563;51.744;8.252;2024-03-08T01:05:06;4.30;;;3.90;;
45842;SDS011;31563;51.744;8.252;2024-03-08T01:07:36;4.20;;;3.80;;
45842;SDS011;31563;51.744;8.252;2024-03-08T01:10:04;4.25;;;3.85;;
45842;SDS011;31563;51.744;8.252;2024-03-08T01:12:37;4.18;;;3.78;;
45842;SDS011;31563;51.744;8.252;2024-03-08T01:15:06;3.42;;;3.13;;
45842;SDS011;31563;51.744;8.252;2024-03-08T01:17:34;3.75;;;3.45;;
45842;SDS011;31563;51.744;8.252;2024-03-08T01:20:03;4.13;;;3.72;;
45842;SDS011;31563;51.744;8.252;2024-03-08T01:22:32;3.67;;;3.37;;
45842;SDS011;31563;51.744;8.252;2024-03-08T01:25:00;3.78;;;3.40;;
45842;SDS011;31563;51.744;8.252;2024-03-08T01:27:30;3.75;;;3.45;;
45842;SDS011;31563;51.744;8.252;2024-03-08T01:30:00;4.03;;;3.72;;
45842;SDS011;31563;51.744;8.252;2024-03-08T01:32:29;4.57;;;4.18;;
45842;SDS011;31563;51.744;8.252;2024-03-08T01:34:57;4.03;;;3.70;;
45842;SDS011;31563;51.744;8.252;2024-03-08T01:37:25;4.15;;;3.55;;
45842;SDS011;31563;51.744;8.252;2024-03-08T01:39:53;4.05;;;3.65;;
45842;SDS011;31563;51.744;8.252;2024-03-08T01:42:21;4.88;;;4.32;;
45842;SDS011;31563;51.744;8.252;2024-03-08T01:44:49;3.90;;;3.60;;
45842;SDS011;31563;51.744;8.252;2024-03-08T01:47:19;4.47;;;4.07;;
45842;SDS011;31563;51.744;8.252;2024-03-08T01:49:49;3.85;;;3.55;;
45842;SDS011;31563;51.744;8.252;2024-03-08T01:52:18;3.70;;;3.40;;
45842;SDS011;31563;51.744;8.252;2024-03-08T01:54:47;4.30;;;3.90;;
45842;SDS011;31563;51.744;8.252;2024-03-08T01:57:15;4.55;;;4.15;;
45842;SDS011;31563;51.744;8.252;2024-03-08T01:59:44;4.57;;;4.18;;
45842;SDS011;31563;51.744;8.252;2024-03-08T02:02:12;4.50;;;4.10;;
45842;SDS011;31563;51.744;8.252;2024-03-08T02:04:47;3.92;;;3.63;;
45842;SDS011;31563;51.744;8.252;2024-03-08T02:07:19;4.50;;;4.05;;
45842;SDS011;31563;51.744;8.252;2024-03-08T02:09:48;4.07;;;3.67;;
45842;SDS011;31563;51.744;8.252;2024-03-08T02:12:17;4.40;;;4.00;;
45842;SDS011;31563;51.744;8.252;2024-03-08T02:14:47;3.50;;;3.20;;
45842;SDS011;31563;51.744;8.252;2024-03-08T02:17:15;4.35;;;3.97;;
45842;SDS011;31563;51.744;8.252;2024-03-08T02:19:44;3.75;;;3.45;;
45842;SDS011;31563;51.744;8.252;2024-03-08T02:22:14;4.40;;;4.00;;
45842;SDS011;31563;51.744;8.252;2024-03-08T02:24:42;3.80;;;3.50;;
45842;SDS011;31563;51.744;8.252;2024-03-08T02:27:10;4.45;;;4.05;;
45842;SDS011;31563;51.744;8.252;2024-03-08T02:29:39;4.43;;;4.03;;
45842;SDS011;31563;51.744;8.252;2024-03-08T02:32:10;4.07;;;3.78;;
45842;SDS011;31563;51.744;8.252;2024-03-08T02:34:39;3.97;;;3.67;;
45842;SDS011;31563;51.744;8.252;2024-03-08T02:37:07;4.07;;;3.67;;
45842;SDS011;31563;51.744;8.252;2024-03-08T02:39:36;4.22;;;3.60;;
45842;SDS011;31563;51.744;8.252;2024-03-08T02:42:05;3.92;;;3.63;;
45842;SDS011;31563;51.744;8.252;2024-03-08T02:44:33;4.43;;;4.03;;
45842;SDS011;31563;51.744;8.252;2024-03-08T02:47:01;4.47;;;3.83;;
45842;SDS011;31563;51.744;8.252;2024-03-08T02:49:30;3.80;;;3.38;;
45842;SDS011;31563;51.744;8.252;2024-03-08T02:51:58;4.20;;;3.80;;
45842;SDS011;31563;51.744;8.252;2024-03-08T02:54:26;4.10;;;3.80;;
45842;SDS011;31563;51.744;8.252;2024-03-08T02:56:55;3.80;;;3.50;;
45842;SDS011;31563;51.744;8.252;2024-03-08T02:59:24;4.90;;;4.10;;
45842;SDS011;31563;51.744;8.252;2024-03-08T03:01:51;4.43;;;4.03;;
45842;SDS011;31563;51.744;8.252;2024-03-08T03:04:19;4.38;;;3.97;;
45842;SDS011;31563;51.744;8.252;2024-03-08T03:06:47;3.97;;;3.58;;
45842;SDS011;31563;51.744;8.252;2024-03-08T03:09:16;4.20;;;3.80;;
45842;SDS011;31563;51.744;8.252;2024-03-08T03:11:49;4.00;;;3.60;;
45842;SDS011;31563;51.744;8.252;2024-03-08T03:14:19;4.30;;;3.70;;
45842;SDS011;31563;51.744;8.252;2024-03-08T03:16:47;4.43;;;4.03;;
45842;SDS011;31563;51.744;8.252;2024-03-08T03:19:16;4.50;;;4.10;;
45842;SDS011;31563;51.744;8.252;2024-03-08T03:21:44;4.10;;;3.70;;
45842;SDS011;31563;51.744;8.252;2024-03-08T03:24:12;4.13;;;3.72;;
45842;SDS011;31563;51.744;8.252;2024-03-08T03:26:42;3.72;;;3.40;;
45842;SDS011;31563;51.744;8.252;2024-03-08T03:29:10;4.47;;;4.07;;
45842;SDS011;31563;51.744;8.252;2024-03-08T03:31:40;3.90;;;3.60;;
45842;SDS011;31563;51.744;8.252;2024-03-08T03:34:08;3.90;;;3.60;;
45842;SDS011;31563;51.744;8.252;2024-03-08T03:36:36;4.13;;;3.72;;
45842;SDS011;31563;51.744;8.252;2024-03-08T03:39:08;4.35;;;3.88;;
45842;SDS011;31563;51.744;8.252;2024-03-08T03:41:39;4.03;;;3.63;;
45842;SDS011;31563;51.744;8.252;2024-03-08T03:44:07;4.18;;;3.78;;
45842;SDS011;31563;51.744;8.252;2024-03-08T03:46:36;4.50;;;4.10;;
45842;SDS011;31563;51.744;8.252;2024-03-08T03:49:05;4.88;;;4.40;;
45842;SDS011;31563;51.744;8.252;2024-03-08T03:51:33;4.78;;;4.28;;
45842;SDS011;31563;51.744;8.252;2024-03-08T03:54:01;4.05;;;3.75;;
45842;SDS011;31563;51.744;8.252;2024-03-08T03:56:30;4.80;;;4.40;;
45842;SDS011;31563;51.744;8.252;2024-03-08T03:58:58;4.40;;;3.95;;
45842;SDS011;31563;51.744;8.252;2024-03-08T04:01:26;4.38;;;3.97;;
45842;SDS011;31563;51.744;8.252;2024-03-08T04:03:55;4.00;;;3.70;;
45842;SDS011;31563;51.744;8.252;2024-03-08T04:06:25;4.30;;;3.95;;
45842;SDS011;31563;51.744;8.252;2024-03-08T04:08:53;4.28;;;3.88;;
45842;SDS011;31563;51.744;8.252;2024-03-08T04:11:21;4.50;;;4.10;;
45842;SDS011;31563;51.744;8.252;2024-03-08T04:13:49;4.35;;;3.95;;
45842;SDS011;31563;51.744;8.252;2024-03-08T04:16:18;3.92;;;3.63;;
45842;SDS011;31563;51.744;8.252;2024-03-08T04:18:46;4.70;;;4.30;;
45842;SDS011;31563;51.744;8.252;2024-03-08T04:21:15;4.40;;;4.00;;
45842;SDS011;31563;51.744;8.252;2024-03-08T04:23:44;4.35;;;3.97;;
45842;SDS011;31563;51.744;8.252;2024-03-08T04:26:12;4.40;;;4.00;;
45842;SDS011;31563;51.744;8.252;2024-03-08T04:28:44;4.07;;;3.78;;
45842;SDS011;31563;51.744;8.252;2024-03-08T04:31:13;4.18;;;3.78;;
45842;SDS011;31563;51.744;8.252;2024-03-08T04:33:42;4.47;;;4.07;;
45842;SDS011;31563;51.744;8.252;2024-03-08T04:36:11;4.03;;;3.63;;
45842;SDS011;31563;51.744;8.252;2024-03-08T04:38:39;4.10;;;3.70;;
45842;SDS011;31563;51.744;8.252;2024-03-08T04:41:10;4.63;;;4.22;;
45842;SDS011;31563;51.744;8.252;2024-03-08T04:43:38;4.30;;;4.00;;
45842;SDS011;31563;51.744;8.252;2024-03-08T04:46:06;4.60;;;4.20;;
45842;SDS011;31563;51.744;8.252;2024-03-08T04:48:35;4.45;;;4.05;;
45842;SDS011;31563;51.744;8.252;2024-03-08T04:51:04;4.95;;;4.45;;
45842;SDS011;31563;51.744;8.252;2024-03-08T04:53:32;4.35;;;3.95;;
45842;SDS011;31563;51.744;8.252;2024-03-08T04:56:00;4.03;;;3.72;;
45842;SDS011;31563;51.744;8.252;2024-03-08T04:58:33;4.32;;;3.95;;
45842;SDS011;31563;51.744;8.252;2024-03-08T05:01:03;3.83;;;3.53;;
45842;SDS011;31563;51.744;8.252;2024-03-08T05:03:31;4.45;;;3.60;;
45842;SDS011;31563;51.744;8.252;2024-03-08T05:05:59;4.20;;;3.80;;
45842;SDS011;31563;51.744;8.252;2024-03-08T05:08:27;3.40;;;3.10;;
45842;SDS011;31563;51.744;8.252;2024-03-08T05:10:55;4.05;;;3.70;;
45842;SDS011;31563;51.744;8.252;2024-03-08T05:13:24;3.72;;;3.42;;
45842;SDS011;31563;51.744;8.252;2024-03-08T05:15:54;4.03;;;3.63;;
45842;SDS011;31563;51.744;8.252;2024-03-08T05:18:24;3.78;;;3.42;;
45842;SDS011;31563;51.744;8.252;2024-03-08T05:23:22;4.18;;;3.78;;
45842;SDS011;31563;51.744;8.252;2024-03-08T05:25:50;3.58;;;3.28;;
45842;SDS011;31563;51.744;8.252;2024-03-08T05:28:18;3.70;;;3.40;;
45842;SDS011;31563;51.744;8.252;2024-03-08T05:30:47;3.53;;;3.20;;
45842;SDS011;31563;51.744;8.252;2024-03-08T05:33:16;3.90;;;3.60;;
45842;SDS011;31563;51.744;8.252;2024-03-08T05:35:45;4.85;;;3.90;;
45842;SDS011;31563;51.744;8.252;2024-03-08T05:38:13;3.88;;;3.55;;
45842;SDS011;31563;51.744;8.252;2024-03-08T05:40:42;3.55;;;3.25;;
45842;SDS011;31563;51.744;8.252;2024-03-08T05:43:10;4.07;;;3.67;;
45842;SDS011;31563;51.744;8.252;2024-03-08T05:45:38;3.45;;;3.15;;
45842;SDS011;31563;51.744;8.252;2024-03-08T05:48:07;3.65;;;3.35;;
45842;SDS011;31563;51.744;8.252;2024-03-08T05:50:37;3.88;;;3.55;;
45842;SDS011;31563;51.744;8.252;2024-03-08T05:53:05;3.85;;;3.55;;
45842;SDS011;31563;51.744;8.252;2024-03-08T05:55:33;4.25;;;3.67;;
45842;SDS011;31563;51.744;8.252;2024-03-08T05:58:01;3.40;;;3.10;;
45842;SDS011;31563;51.744;8.252;2024-03-08T06:00:30;3.78;;;3.47;;
45842;SDS011;31563;51.744;8.252;2024-03-08T06:02:58;3.83;;;3.42;;
45842;SDS011;31563;51.744;8.252;2024-03-08T06:05:26;3.33;;;3.03;;
45842;SDS011;31563;51.744;8.252;2024-03-08T06:07:56;4.05;;;3.65;;
45842;SDS011;31563;51.744;8.252;2024-03-08T06:10:24;3.58;;;3.28;;
45842;SDS011;31563;51.744;8.252;2024-03-08T06:12:52;3.75;;;3.42;;
45842;SDS011;31563;51.744;8.252;2024-03-08T06:15:21;3.53;;;3.22;;
45842;SDS011;31563;51.744;8.252;2024-03-08T06:17:49;3.83;;;3.53;;
45842;SDS011;31563;51.744;8.252;2024-03-08T06:20:19;4.05;;;3.65;;
45842;SDS011;31563;51.744;8.252;2024-03-08T06:22:52;3.78;;;3.47;;
45842;SDS011;31563;51.744;8.252;2024-03-08T06:25:22;3.42;;;3.13;;
45842;SDS011;31563;51.744;8.252;2024-03-08T06:27:50;3.40;;;3.00;;
45842;SDS011;31563;51.744;8.252;2024-03-08T06:30:19;3.38;;;3.08;;
45842;SDS011;31563;51.744;8.252;2024-03-08T06:32:47;3.72;;;3.38;;
45842;SDS011;31563;51.744;8.252;2024-03-08T06:35:15;3.80;;;3.40;;
45842;SDS011;31563;51.744;8.252;2024-03-08T06:37:44;3.45;;;3.15;;
45842;SDS011;31563;51.744;8.252;2024-03-08T06:40:12;3.95;;;3.63;;
45842;SDS011;31563;51.744;8.252;2024-03-08T06:42:42;4.03;;;3.72;;
45842;SDS011;31563;51.744;8.252;2024-03-08T06:45:11;3.50;;;3.20;;
45842;SDS011;31563;51.744;8.252;2024-03-08T06:47:41;3.35;;;3.05;;
45842;SDS011;31563;51.744;8.252;2024-03-08T06:50:11;4.10;;;3.47;;
45842;SDS011;31563;51.744;8.252;2024-03-08T06:52:41;3.78;;;3.47;;
45842;SDS011;31563;51.744;8.252;2024-03-08T06:55:10;4.00;;;3.67;;
45842;SDS011;31563;51.744;8.252;2024-03-08T06:57:39;3.85;;;3.45;;
45842;SDS011;31563;51.744;8.252;2024-03-08T07:00:09;3.80;;;3.50;;
45842;SDS011;31563;51.744;8.252;2024-03-08T07:02:44;3.55;;;3.25;;
45842;SDS011;31563;51.744;8.252;2024-03-08T07:05:15;3.92;;;3.63;;
45842;SDS011;31563;51.744;8.252;2024-03-08T07:07:43;3.50;;;3.20;;
45842;SDS011;31563;51.744;8.252;2024-03-08T07:10:11;4.15;;;3.75;;
45842;SDS011;31563;51.744;8.252;2024-03-08T07:12:41;3.70;;;3.40;;
45842;SDS011;31563;51.744;8.252;2024-03-08T07:15:11;3.88;;;3.58;;
45842;SDS011;31563;51.744;8.252;2024-03-08T07:17:41;3.80;;;3.40;;
45842;SDS011;31563;51.744;8.252;2024-03-08T07:20:11;3.25;;;2.95;;
45842;SDS011;31563;51.744;8.252;2024-03-08T07:22:40;3.83;;;3.45;;
45842;SDS011;31563;51.744;8.252;2024-03-08T07:25:13;3.60;;;3.30;;
45842;SDS011;31563;51.744;8.252;2024-03-08T07:27:49;3.58;;;3.28;;
45842;SDS011;31563;51.744;8.252;2024-03-08T07:30:24;3.55;;;3.25;;
45842;SDS011;31563;51.744;8.252;2024-03-08T07:33:11;3.53;;;3.22;;
45842;SDS011;31563;51.744;8.252;2024-03-08T07:35:40;3.67;;;3.38;;
45842;SDS011;31563;51.744;8.252;2024-03-08T07:38:10;3.53;;;3.20;;
45842;SDS011;31563;51.744;8.252;2024-03-08T07:40:39;3.88;;;3.58;;
45842;SDS011;31563;51.744;8.252;2024-03-08T07:43:11;3.00;;;2.70;;
45842;SDS011;31563;51.744;8.252;2024-03-08T07:45:41;3.40;;;3.10;;
45842;SDS011;31563;51.744;8.252;2024-03-08T07:48:09;3.58;;;3.13;;
45842;SDS011;31563;51.744;8.252;2024-03-08T07:50:39;3.30;;;3.00;;
45842;SDS011;31563;51.744;8.252;2024-03-08T07:53:08;3.60;;;3.30;;
45842;SDS011;31563;51.744;8.252;2024-03-08T07:55:37;3.13;;;2.90;;
45842;SDS011;31563;51.744;8.252;2024-03-08T07:58:06;3.10;;;2.80;;
45842;SDS011;31563;51.744;8.252;2024-03-08T08:00:35;3.40;;;3.10;;
45842;SDS011;31563;51.744;8.252;2024-03-08T08:03:05;3.72;;;3.40;;
45842;SDS011;31563;51.744;8.252;2024-03-08T08:05:34;3.60;;;3.17;;
45842;SDS011;31563;51.744;8.252;2024-03-08T08:08:04;3.38;;;3.08;;
45842;SDS011;31563;51.744;8.252;2024-03-08T08:10:36;3.60;;;3.30;;
45842;SDS011;31563;51.744;8.252;2024-03-08T08:13:05;3.55;;;3.20;;
45842;SDS011;31563;51.744;8.252;2024-03-08T08:15:33;3.20;;;2.90;;
45842;SDS011;31563;51.744;8.252;2024-03-08T08:18:01;3.25;;;2.95;;
45842;SDS011;31563;51.744;8.252;2024-03-08T08:20:34;3.08;;;2.80;;
45842;SDS011;31563;51.744;8.252;2024-03-08T08:23:02;3.15;;;2.85;;
45842;SDS011;31563;51.744;8.252;2024-03-08T08:25:30;3.42;;;3.13;;
45842;SDS011;31563;51.744;8.252;2024-03-08T08:30:30;3.60;;;3.30;;
45842;SDS011;31563;51.744;8.252;2024-03-08T08:32:59;3.50;;;3.20;;
45842;SDS011;31563;51.744;8.252;2024-03-08T08:35:27;3.40;;;3.10;;
45842;SDS011;31563;51.744;8.252;2024-03-08T08:37:57;3.55;;;3.25;;
45842;SDS011;31563;51.744;8.252;2024-03-08T08:40:25;3.13;;;2.92;;
45842;SDS011;31563;51.744;8.252;2024-03-08T08:42:55;3.70;;;3.20;;
45842;SDS011;31563;51.744;8.252;2024-03-08T08:45:25;2.73;;;2.53;;
45842;SDS011;31563;51.744;8.252;2024-03-08T08:47:53;2.80;;;2.60;;
45842;SDS011;31563;51.744;8.252;2024-03-08T08:50:21;3.85;;;2.88;;
45842;SDS011;31563;51.744;8.252;2024-03-08T08:52:51;3.30;;;3.03;;
45842;SDS011;31563;51.744;8.252;2024-03-08T08:55:21;3.50;;;3.20;;
45842;SDS011;31563;51.744;8.252;2024-03-08T08:57:52;3.22;;;2.92;;
45842;SDS011;31563;51.744;8.252;2024-03-08T09:00:21;3.50;;;3.20;;
45842;SDS011;31563;51.744;8.252;2024-03-08T09:02:54;3.20;;;2.85;;
45842;SDS011;31563;51.744;8.252;2024-03-08T09:05:24;3.38;;;2.85;;
45842;SDS011;31563;51.744;8.252;2024-03-08T09:07:52;3.20;;;2.90;;
45842;SDS011;31563;51.744;8.252;2024-03-08T09:10:22;3.60;;;2.95;;
45842;SDS011;31563;51.744;8.252;2024-03-08T09:12:56;3.25;;;3.05;;
45842;SDS011;31563;51.744;8.252;2024-03-08T09:15:25;3.30;;;3.00;;
45842;SDS011;31563;51.744;8.252;2024-03-08T09:17:54;3.60;;;3.30;;
45842;SDS011;31563;51.744;8.252;2024-03-08T09:20:23;3.40;;;3.10;;
45842;SDS011;31563;51.744;8.252;2024-03-08T09:22:51;3.35;;;3.05;;
45842;SDS011;31563;51.744;8.252;2024-03-08T09:25:19;3.00;;;2.70;;
45842;SDS011;31563;51.744;8.252;2024-03-08T09:27:49;2.80;;;2.60;;
45842;SDS011;31563;51.744;8.252;2024-03-08T09:30:17;2.90;;;2.70;;
45842;SDS011;31563;51.744;8.252;2024-03-08T09:35:18;3.45;;;3.15;;
45842;SDS011;31563;51.744;8.252;2024-03-08T09:37:46;3.13;;;2.83;;
45842;SDS011;31563;51.744;8.252;2024-03-08T09:40:18;3.17;;;2.88;;
45842;SDS011;31563;51.744;8.252;2024-03-08T09:42:46;3.20;;;2.90;;
45842;SDS011;31563;51.744;8.252;2024-03-08T09:45:17;3.28;;;2.97;;
45842;SDS011;31563;51.744;8.252;2024-03-08T09:47:48;2.83;;;2.50;;
45842;SDS011;31563;51.744;8.252;2024-03-08T09:50:16;3.00;;;2.80;;
45842;SDS011;31563;51.744;8.252;2024-03-08T09:52:46;2.95;;;2.75;;
45842;SDS011;31563;51.744;8.252;2024-03-08T09:55:17;3.10;;;2.88;;
45842;SDS011;31563;51.744;8.252;2024-03-08T09:57:50;2.80;;;2.60;;
45842;SDS011;31563;51.744;8.252;2024-03-08T10:00:37;3.65;;;3.35;;
45842;SDS011;31563;51.744;8.252;2024-03-08T10:03:05;3.13;;;2.83;;
45842;SDS011;31563;51.744;8.252;2024-03-08T10:05:36;3.30;;;3.00;;
45842;SDS011;31563;51.744;8.252;2024-03-08T10:08:05;3.05;;;2.83;;
45842;SDS011;31563;51.744;8.252;2024-03-08T10:10:33;2.90;;;2.70;;
45842;SDS011;31563;51.744;8.252;2024-03-08T10:13:03;2.85;;;2.65;;
45842;SDS011;31563;51.744;8.252;2024-03-08T10:15:33;3.05;;;2.60;;
45842;SDS011;31563;51.744;8.252;2024-03-08T10:18:01;2.95;;;2.75;;
45842;SDS011;31563;51.744;8.252;2024-03-08T10:20:30;2.67;;;2.47;;
45842;SDS011;31563;51.744;8.252;2024-03-08T10:23:00;3.05;;;2.75;;
45842;SDS011;31563;51.744;8.252;2024-03-08T10:25:37;3.25;;;2.95;;
45842;SDS011;31563;51.744;8.252;2024-03-08T10:28:07;2.60;;;2.40;;
45842;SDS011;31563;51.744;8.252;2024-03-08T10:30:35;2.78;;;2.58;;
45842;SDS011;31563;51.744;8.252;2024-03-08T10:33:04;2.88;;;2.53;;
45842;SDS011;31563;51.744;8.252;2024-03-08T10:35:33;2.58;;;2.38;;
45842;SDS011;31563;51.744;8.252;2024-03-08T10:38:01;2.90;;;2.60;;
45842;SDS011;31563;51.744;8.252;2024-03-08T10:40:34;2.90;;;2.60;;
45842;SDS011;31563;51.744;8.252;2024-03-08T10:43:08;2.90;;;2.60;;
45842;SDS011;31563;51.744;8.252;2024-03-08T10:45:56;2.75;;;2.55;;
45842;SDS011;31563;51.744;8.252;2024-03-08T10:48:31;2.72;;;2.53;;
45842;SDS011;31563;51.744;8.252;2024-03-08T10:51:05;2.72;;;2.53;;
45842;SDS011;31563;51.744;8.252;2024-03-08T10:53:37;2.92;;;2.72;;
45842;SDS011;31563;51.744;8.252;2024-03-08T10:56:08;2.42;;;2.22;;
45842;SDS011;31563;51.744;8.252;2024-03-08T10:58:38;2.90;;;2.70;;
45842;SDS011;31563;51.744;8.252;2024-03-08T11:01:08;2.72;;;2.53;;
45842;SDS011;31563;51.744;8.252;2024-03-08T11:03:46;2.50;;;2.30;;
45842;SDS011;31563;51.744;8.252;2024-03-08T11:06:22;2.30;;;2.10;;
45842;SDS011;31563;51.744;8.252;2024-03-08T11:08:56;2.70;;;2.50;;
45842;SDS011;31563;51.744;8.252;2024-03-08T11:11:25;2.85;;;2.60;;
45842;SDS011;31563;51.744;8.252;2024-03-08T11:14:01;2.33;;;2.13;;
45842;SDS011;31563;51.744;8.252;2024-03-08T11:16:37;2.40;;;2.20;;
45842;SDS011;31563;51.744;8.252;2024-03-08T11:19:24;2.35;;;2.15;;
45842;SDS011;31563;51.744;8.252;2024-03-08T11:21:59;2.45;;;2.25;;
45842;SDS011;31563;51.744;8.252;2024-03-08T11:24:27;2.65;;;2.45;;
45842;SDS011;31563;51.744;8.252;2024-03-08T11:27:04;2.60;;;2.40;;
45842;SDS011;31563;51.744;8.252;2024-03-08T11:29:35;2.80;;;2.60;;
45842;SDS011;31563;51.744;8.252;2024-03-08T11:32:09;2.40;;;2.20;;
45842;SDS011;31563;51.744;8.252;2024-03-08T11:34:40;2.60;;;2.40;;
45842;SDS011;31563;51.744;8.252;2024-03-08T11:37:11;2.63;;;2.42;;
45842;SDS011;31563;51.744;8.252;2024-03-08T11:39:46;2.67;;;2.47;;
45842;SDS011;31563;51.744;8.252;2024-03-08T11:42:15;2.58;;;2.38;;
45842;SDS011;31563;51.744;8.252;2024-03-08T11:44:46;2.53;;;2.33;;
45842;SDS011;31563;51.744;8.252;2024-03-08T11:47:14;2.65;;;2.45;;
45842;SDS011;31563;51.744;8.252;2024-03-08T11:49:43;2.20;;;2.00;;
45842;SDS011;31563;51.744;8.252;2024-03-08T11:52:14;2.30;;;2.10;;
45842;SDS011;31563;51.744;8.252;2024-03-08T11:54:53;2.20;;;2.00;;
45842;SDS011;31563;51.744;8.252;2024-03-08T11:57:24;2.00;;;1.90;;
45842;SDS011;31563;51.744;8.252;2024-03-08T11:59:54;2.50;;;2.30;;
45842;SDS011;31563;51.744;8.252;2024-03-08T12:02:24;2.55;;;2.30;;
45842;SDS011;31563;51.744;8.252;2024-03-08T12:04:56;2.50;;;2.30;;
45842;SDS011;31563;51.744;8.252;2024-03-08T12:07:26;2.33;;;2.13;;
45842;SDS011;31563;51.744;8.252;2024-03-08T12:12:45;2.80;;;2.60;;
45842;SDS011;31563;51.744;8.252;2024-03-08T12:15:16;2.47;;;2.28;;
45842;SDS011;31563;51.744;8.252;2024-03-08T12:17:45;2.10;;;1.98;;
45842;SDS011;31563;51.744;8.252;2024-03-08T12:20:15;2.63;;;2.42;;
45842;SDS011;31563;51.744;8.252;2024-03-08T12:22:44;2.47;;;2.28;;
45842;SDS011;31563;51.744;8.252;2024-03-08T12:25:13;2.90;;;2.70;;
45842;SDS011;31563;51.744;8.252;2024-03-08T12:27:42;2.63;;;2.42;;
45842;SDS011;31563;51.744;8.252;2024-03-08T12:30:17;2.35;;;2.15;;
45842;SDS011;31563;51.744;8.252;2024-03-08T12:32:51;2.50;;;2.30;;
45842;SDS011;31563;51.744;8.252;2024-03-08T12:35:24;2.58;;;2.38;;
45842;SDS011;31563;51.744;8.252;2024-03-08T12:37:53;2.53;;;2.33;;
45842;SDS011;31563;51.744;8.252;2024-03-08T12:40:26;2.45;;;2.25;;
45842;SDS011;31563;51.744;8.252;2024-03-08T12:42:55;2.70;;;2.50;;
45842;SDS011;31563;51.744;8.252;2024-03-08T12:45:24;2.40;;;2.20;;
45842;SDS011;31563;51.744;8.252;2024-03-08T12:47:53;2.70;;;2.50;;
45842;SDS011;31563;51.744;8.252;2024-03-08T12:50:22;2.15;;;1.98;;
45842;SDS011;31563;51.744;8.252;2024-03-08T12:52:52;2.60;;;2.40;;
45842;SDS011;31563;51.744;8.252;2024-03-08T12:55:20;2.35;;;2.15;;
45842;SDS011;31563;51.744;8.252;2024-03-08T12:57:48;2.80;;;2.60;;
45842;SDS011;31563;51.744;8.252;2024-03-08T13:00:19;2.60;;;2.40;;
45842;SDS011;31563;51.744;8.252;2024-03-08T13:02:51;2.25;;;2.15;;
45842;SDS011;31563;51.744;8.252;2024-03-08T13:05:19;2.50;;;2.30;;
45842;SDS011;31563;51.744;8.252;2024-03-08T13:07:47;3.03;;;2.80;;
45842;SDS011;31563;51.744;8.252;2024-03-08T13:10:16;4.63;;;4.10;;
45842;SDS011;31563;51.744;8.252;2024-03-08T13:12:46;4.53;;;4.10;;
45842;SDS011;31563;51.744;8.252;2024-03-08T13:15:19;3.95;;;3.47;;
45842;SDS011;31563;51.744;8.252;2024-03-08T13:17:47;3.60;;;3.30;;
45842;SDS011;31563;51.744;8.252;2024-03-08T13:20:17;3.60;;;3.30;;
45842;SDS011;31563;51.744;8.252;2024-03-08T13:22:56;3.85;;;3.45;;
45842;SDS011;31563;51.744;8.252;2024-03-08T13:25:26;4.10;;;3.70;;
45842;SDS011;31563;51.744;8.252;2024-03-08T13:27:54;4.20;;;3.80;;
45842;SDS011;31563;51.744;8.252;2024-03-08T13:30:25;3.30;;;3.00;;
45842;SDS011;31563;51.744;8.252;2024-03-08T13:32:54;3.47;;;3.17;;
45842;SDS011;31563;51.744;8.252;2024-03-08T13:35:23;3.50;;;3.20;;
45842;SDS011;31563;51.744;8.252;2024-03-08T13:37:53;3.97;;;3.58;;
45842;SDS011;31563;51.744;8.252;2024-03-08T13:40:22;4.23;;;3.83;;
45842;SDS011;31563;51.744;8.252;2024-03-08T13:42:50;3.90;;;3.42;;
45842;SDS011;31563;51.744;8.252;2024-03-08T13:45:18;3.60;;;3.30;;
45842;SDS011;31563;51.744;8.252;2024-03-08T13:47:49;3.42;;;3.03;;
45842;SDS011;31563;51.744;8.252;2024-03-08T13:50:17;3.67;;;3.37;;
45842;SDS011;31563;51.744;8.252;2024-03-08T13:52:49;3.78;;;3.42;;
45842;SDS011;31563;51.744;8.252;2024-03-08T13:55:21;3.50;;;3.20;;
45842;SDS011;31563;51.744;8.252;2024-03-08T13:57:50;3.28;;;2.97;;
45842;SDS011;31563;51.744;8.252;2024-03-08T14:00:18;2.72;;;2.53;;
45842;SDS011;31563;51.744;8.252;2024-03-08T14:02:49;3.50;;;3.20;;
45842;SDS011;31563;51.744;8.252;2024-03-08T14:05:17;3.50;;;3.20;;
45842;SDS011;31563;51.744;8.252;2024-03-08T14:07:46;3.05;;;2.78;;
45842;SDS011;31563;51.744;8.252;2024-03-08T14:10:18;3.55;;;3.25;;
45842;SDS011;31563;51.744;8.252;2024-03-08T14:12:47;2.58;;;2.38;;
45842;SDS011;31563;51.744;8.252;2024-03-08T14:15:16;2.88;;;2.67;;
45842;SDS011;31563;51.744;8.252;2024-03-08T14:17:45;3.22;;;2.92;;
45842;SDS011;31563;51.744;8.252;2024-03-08T14:20:20;2.88;;;2.63;;
45842;SDS011;31563;51.744;8.252;2024-03-08T14:22:51;3.17;;;2.88;;
45842;SDS011;31563;51.744;8.252;2024-03-08T14:25:21;3.00;;;2.80;;
45842;SDS011;31563;51.744;8.252;2024-03-08T14:27:50;3.05;;;2.85;;
45842;SDS011;31563;51.744;8.252;2024-03-08T14:30:20;3.00;;;2.80;;
45842;SDS011;31563;51.744;8.252;2024-03-08T14:33:01;3.05;;;2.85;;
45842;SDS011;31563;51.744;8.252;2024-03-08T14:35:29;2.60;;;2.40;;
45842;SDS011;31563;51.744;8.252;2024-03-08T14:37:57;2.75;;;2.55;;
45842;SDS011;31563;51.744;8.252;2024-03-08T14:40:28;2.80;;;2.60;;
45842;SDS011;31563;51.744;8.252;2024-03-08T14:42:57;2.60;;;2.40;;
45842;SDS011;31563;51.744;8.252;2024-03-08T14:45:28;2.95;;;2.67;;
45842;SDS011;31563;51.744;8.252;2024-03-08T14:47:56;2.95;;;2.75;;
45842;SDS011;31563;51.744;8.252;2024-03-08T14:52:53;2.55;;;2.35;;
45842;SDS011;31563;51.744;8.252;2024-03-08T14:55:22;2.90;;;2.70;;
45842;SDS011;31563;51.744;8.252;2024-03-08T14:57:53;2.70;;;2.50;;
45842;SDS011;31563;51.744;8.252;2024-03-08T15:00:21;2.95;;;2.65;;
45842;SDS011;31563;51.744;8.252;2024-03-08T15:03:00;2.80;;;2.60;;
45842;SDS011;31563;51.744;8.252;2024-03-08T15:05:30;2.70;;;2.50;;
45842;SDS011;31563;51.744;8.252;2024-03-08T15:08:02;2.63;;;2.42;;
45842;SDS011;31563;51.744;8.252;2024-03-08T15:10:37;2.85;;;2.65;;
45842;SDS011;31563;51.744;8.252;2024-03-08T15:13:09;3.00;;;2.70;;
45842;SDS011;31563;51.744;8.252;2024-03-08T15:15:49;2.70;;;2.50;;